Relevés horaires Mottec (Suisse)


Relevés horaires à Mottec - Mercredi 11 Juill. 2018
Heure UTC1 Température [°C] Vent [km/h] Hum. [%] Pres.4 [hPa] Visi. [Km] Nébu. [octa] Préc.5 [mm] Cond.
2m. Res. Ros. Dir.2 Vit. Moy. Raf.3
23:00 9.5 8.2 6.2 SSE 9.3 -- -- 80 850 -- -- -- --
22:00 8.8 7.7 6.0 S 7.4 -- -- 83 850 -- -- -- --
21:00 10.1 9.3 6.5 S 7.4 -- 18.5 78 850(1.8/3h) -- -- -- --
20:00 11.3 11.1 6.5 S 5.6 -- -- 72 850 -- -- -- --
19:00 13.7 13.7 6.5 S 1.9 -- -- 62 850 -- -- -- --
18:00 16.5 16.5 4.6 N 9.3 -- 29.6 45 850(0.8/3h) -- -- 0/12h
--
17:00 17.0 17.0 4.1 N 5.6 -- -- 42 850 -- -- -- --
16:00 18.8 18.8 3.5 N 9.3 -- -- 36 850 -- -- -- --
15:00 19.4 19.4 2.6 N 13.0 -- 29.6 33 850(-0.1/3h) -- -- -- --
14:00 19.5 19.5 1.7 N 13.0 -- -- 30 850 -- -- -- --
13:00 19.2 19.2 3.1 N 13.0 -- -- 34 850 -- -- -- --
12:00 18.5 18.5 2.6 NNO 11.1 -- 25.9 35 850(-0.6/3h) -- -- 0/6h
--
11:00 17.1 16.8 4.5 NNO 13.0 -- -- 43 850 -- -- -- --
10:00 15.9 15.4 5.7 N 13.0 -- -- 51 850 -- -- -- --
09:00 14.6 14.2 6.3 NNO 9.3 -- 18.5 57 850(-0.5/3h) -- -- -- --
08:00 11.8 11.8 8.3 ENE 3.7 -- -- 79 850 -- -- -- --
07:00 7.2 7.2 6.3 S 1.9 -- -- 94 850 -- -- -- --
06:00 7.9 6.3 6.2 S 9.3 -- 13.0 89 850(0.0/3h) -- -- 0/12h
0/24h
--
05:00 7.2 5.9 5.7 S 7.4 -- -- 90 850 -- -- -- --
04:00 7.5 5.8 6.3 S 9.3 -- -- 92 850 -- -- -- --
03:00 7.9 6.7 6.2 S 7.4 -- 13.0 89 850(-0.6/3h) -- -- -- --
02:00 9.1 7.7 6.6 S 9.3 -- -- 84 850 -- -- -- --
01:00 8.6 8 6.3 S 5.6 -- -- 85 850 -- -- -- --
00:00 9.1 9.1 6.9 SSO 1.9 -- 22.2 86 850(-0.5/3h) -- -- 0/6h
--

1 Coordinated Universal Time. Actuellement il est 18:00 locale et 16:00 UTC.

2 Le vent souffle depuis la direction indiquée vers la direction oposée.

3 Les rafales max. sont disponible 40 min après l'heure du relevé.

4 Pour les stations d'altitude (plus de 600m) le géopotentiel du niveau le plus proche de la pression obligatoire est indiqué.

5 Les stations disposant d'un diffuseur peuvent indiquer "trace". Cela signifie que des précipitations ont touchés le sol mais que la quantité est inférieure à 0.1 mm.

Récapitulatif de la journée
Température [°C] Vent [km/h] Ensoleillement4 [h] Precipitations totale5 [mm] Pression [Hpa]
Min1 Max.2 Moy.3 Max. Min Max.
6.9 19.8 0 29.6 8 h 12 min 0 850.0 850.0

1 Température minimale relevée entre 18:00 UTC la veille et 18:00 UTC le jour donné.

2 Température maximale relevée entre 06:00 UTC le jour donné et 06:00 UTC le lendemain.

3 Vent moyen de la journée basé sur les relevés horaires.

4 Ensoleillement en heures relevé entre 06:00 UTC la veille et 06:00 UTC le jour donné.

5 Précipitations totales tombées entre 06:00 UTC la jour donné et 06:00 UTC le lendemain.

Graphiques horaires